Terminal Aerodrome Forecast
Issued by NWS

Home | Current Version | Previous Version | Graphics & Text | Print | Product List | Glossary On
Versions: 1 2 3 4 5 6 7 8 9 10 11 12 13 14 15 16 17 18 19 20 21 22 23 24 25 26
635
FTUS43 KBIS 270932 AAB
TAFJMS
TAF AMD
KJMS 270932Z 2710/2806 00000KT 1/4SM FG OVC002
     FM271500 00000KT 2SM BR SCT060
     FM271600 VRB03KT P6SM SCT090
     FM272100 11007KT P6SM SCT250=

USA.gov is the U.S. government's official web portal to all federal, state and local government web resources and services.